Time;durP1;ratioP1;P1;durP2;ratioP2;P2;SDS_P1;SDS_P2;PMS_P1;PMS_P2;Temp;Humidity;BMP_temperature;BMP_pressure;BME280_temperature;BME280_humidity;BME280_pressure;Samples;Min_cycle;Max_cycle;Signal;HPM_P1;HPM_P2
2023/07/27 00:02:49;;;;;;;;;;;;;;;16.30;58.11;100094.00;5386792;32;35712;-83
2023/07/27 00:05:51;;;;;;;;;;;;;;;16.55;57.33;100085.22;5388674;32;34854;-85
2023/07/27 00:08:53;;;;;;;;;;;;;;;16.16;57.85;100086.09;5380980;32;35092;-84
2023/07/27 00:11:55;;;;;;;;;;;;;;;15.75;58.84;100086.19;5383292;32;34330;-85
2023/07/27 00:14:58;;;;;;;;;;;;;;;16.20;57.37;100092.88;5386526;32;36152;-84
2023/07/27 00:18:00;;;;;;;;;;;;;;;16.27;56.84;100082.72;5384878;32;34784;-87
2023/07/27 00:21:02;;;;;;;;;;;;;;;16.22;57.24;100096.28;5386824;32;35218;-86
2023/07/27 00:24:04;;;;;;;;;;;;;;;16.17;57.26;100096.62;5380371;32;36696;-86
2023/07/27 00:27:08;;;;;;;;;;;;;;;16.21;57.48;100105.19;5384372;32;35519;-85
2023/07/27 00:30:12;;;;;;;;;;;;;;;15.78;58.37;100109.81;5388542;32;34468;-85
2023/07/27 00:33:14;;;;;;;;;;;;;;;16.07;58.06;100106.13;5381815;32;34921;-85
2023/07/27 00:36:16;;;;;;;;;;;;;;;15.93;57.88;100106.19;5380463;32;35137;-85
2023/07/27 00:39:18;;;;;;;;;;;;;;;15.96;58.06;100111.25;5378754;32;35430;-87
2023/07/27 00:42:20;;;;;;;;;;;;;;;15.86;58.10;100116.34;5386175;32;34621;-85
2023/07/27 00:45:23;;;;;;;;;;;;;;;15.90;58.17;100117.81;5383809;32;35116;-85
2023/07/27 00:48:25;;;;;;;;;;;;;;;16.39;57.69;100114.56;5388603;32;35423;-85
2023/07/27 00:51:27;;;;;;;;;;;;;;;16.62;56.71;100098.91;5384921;32;35194;-84
2023/07/27 00:54:29;;;;;;;;;;;;;;;15.65;59.24;100113.28;5387011;32;34750;-85
2023/07/27 00:57:31;;;;;;;;;;;;;;;15.86;59.52;100105.72;5387865;32;38096;-85
2023/07/27 01:00:33;;;;;;;;;;;;;;;16.69;57.55;100108.13;5377828;32;35540;-85
2023/07/27 01:03:35;;;;;;;;;;;;;;;16.20;58.77;100120.25;5381771;32;34582;-85
2023/07/27 01:06:37;;;;;;;;;;;;;;;15.93;59.37;100116.78;5380698;32;34821;-85
2023/07/27 01:09:39;;;;;;;;;;;;;;;15.94;59.09;100114.03;5387053;32;34222;-86
2023/07/27 01:12:42;;;;;;;;;;;;;;;15.78;60.42;100115.13;5382288;32;34452;-85
2023/07/27 01:15:45;;;;;;;;;;;;;;;16.13;59.25;100113.66;5379661;32;34476;-85
2023/07/27 01:18:47;;;;;;;;;;;;;;;16.36;58.35;100114.78;5388357;32;34995;-85
2023/07/27 01:21:50;;;;;;;;;;;;;;;16.04;60.10;100111.63;5382305;32;34310;-85
2023/07/27 01:24:52;;;;;;;;;;;;;;;16.76;57.60;100106.78;5386777;32;37399;-84
2023/07/27 01:27:57;;;;;;;;;;;;;;;16.28;58.07;100119.75;5386400;32;35402;-85
2023/07/27 01:31:01;;;;;;;;;;;;;;;15.45;60.73;100100.41;5394442;32;34851;-84
2023/07/27 01:34:03;;;;;;;;;;;;;;;15.92;59.32;100120.38;5383408;32;35561;-85
2023/07/27 01:37:05;;;;;;;;;;;;;;;15.83;59.20;100113.88;5380037;32;34542;-84
2023/07/27 01:40:08;;;;;;;;;;;;;;;16.17;58.59;100109.03;5388387;32;35592;-83
2023/07/27 01:43:10;;;;;;;;;;;;;;;15.65;60.31;100102.69;5378960;32;36629;-84
2023/07/27 01:46:12;;;;;;;;;;;;;;;15.78;60.12;100115.13;5385161;32;34619;-85
2023/07/27 01:49:14;;;;;;;;;;;;;;;15.91;59.36;100108.09;5398641;32;34814;-85
2023/07/27 01:52:16;;;;;;;;;;;;;;;15.18;61.65;100111.78;5385121;32;34956;-84
2023/07/27 01:55:18;;;;;;;;;;;;;;;15.27;61.66;100115.69;5386578;32;34734;-85
2023/07/27 01:58:20;;;;;;;;;;;;;;;15.40;61.69;100118.41;5382580;32;35129;-85
2023/07/27 02:01:22;;;;;;;;;;;;;;;15.70;61.00;100115.63;5387608;32;36535;-85
2023/07/27 02:04:24;;;;;;;;;;;;;;;15.45;60.57;100117.16;5385102;32;36038;-84
2023/07/27 02:07:27;;;;;;;;;;;;;;;15.73;60.20;100114.59;5387313;32;33753;-84
2023/07/27 02:10:29;;;;;;;;;;;;;;;15.52;60.45;100108.81;5383560;32;35556;-84
2023/07/27 02:13:31;;;;;;;;;;;;;;;15.37;60.96;100105.34;5380608;32;34507;-83
2023/07/27 02:16:33;;;;;;;;;;;;;;;15.55;60.48;100112.13;5384499;32;36980;-83
2023/07/27 02:19:37;;;;;;;;;;;;;;;15.64;60.39;100098.31;5387841;32;37830;-84
2023/07/27 02:22:40;;;;;;;;;;;;;;;15.40;61.30;100097.22;5385524;32;35278;-84
2023/07/27 02:25:42;;;;;;;;;;;;;;;15.22;61.17;100111.63;5374616;32;34291;-85
2023/07/27 02:28:44;;;;;;;;;;;;;;;15.89;59.90;100117.91;5389177;32;35278;-84
2023/07/27 02:31:46;;;;;;;;;;;;;;;15.24;61.23;100115.00;5382174;32;36291;-86
2023/07/27 02:34:48;;;;;;;;;;;;;;;15.35;61.46;100120.50;5384376;32;34461;-84
2023/07/27 02:37:50;;;;;;;;;;;;;;;15.65;60.39;100123.88;5381968;32;34764;-83
2023/07/27 02:40:52;;;;;;;;;;;;;;;16.29;58.29;100128.53;5385066;32;35054;-84
2023/07/27 02:43:53;;;;;;;;;;;;;;;15.88;60.40;100134.78;5387549;32;35508;-85
2023/07/27 02:46:55;;;;;;;;;;;;;;;16.05;58.97;100131.87;5381613;32;36153;-84
2023/07/27 02:49:57;;;;;;;;;;;;;;;16.29;58.65;100132.03;5381328;32;35848;-84
2023/07/27 02:52:59;;;;;;;;;;;;;;;15.63;60.07;100130.22;5377273;32;35880;-85
2023/07/27 02:56:02;;;;;;;;;;;;;;;15.93;59.30;100122.09;5385818;32;34602;-86
2023/07/27 02:59:04;;;;;;;;;;;;;;;15.66;59.79;100125.56;5382745;32;35629;-85
2023/07/27 03:02:06;;;;;;;;;;;;;;;15.67;60.01;100121.13;5383095;32;34990;-85
2023/07/27 03:05:09;;;;;;;;;;;;;;;16.42;57.34;100119.69;5394088;32;35641;-85
2023/07/27 03:08:10;;;;;;;;;;;;;;;14.86;61.77;100139.41;5380762;32;34334;-83
2023/07/27 03:11:12;;;;;;;;;;;;;;;15.78;59.55;100134.53;5381622;32;35954;-84
2023/07/27 03:14:15;;;;;;;;;;;;;;;15.39;59.96;100144.03;5386416;32;35677;-83
2023/07/27 03:17:17;;;;;;;;;;;;;;;14.88;61.66;100148.13;5385709;32;34492;-84
2023/07/27 03:20:19;;;;;;;;;;;;;;;15.10;61.58;100150.28;5392335;32;35240;-85
2023/07/27 03:23:21;;;;;;;;;;;;;;;15.02;61.14;100157.84;5385632;32;34877;-85
2023/07/27 03:26:23;;;;;;;;;;;;;;;15.05;61.16;100150.56;5384205;32;34536;-84
2023/07/27 03:29:25;;;;;;;;;;;;;;;14.93;61.76;100158.41;5383589;32;34464;-84
2023/07/27 03:32:27;;;;;;;;;;;;;;;14.85;61.72;100149.13;5382130;32;36294;-87
2023/07/27 03:35:30;;;;;;;;;;;;;;;15.13;61.27;100161.56;5380364;32;35311;-85
2023/07/27 03:38:32;;;;;;;;;;;;;;;15.15;60.80;100164.09;5383191;32;34615;-85
2023/07/27 03:41:34;;;;;;;;;;;;;;;15.27;60.93;100159.84;5382445;32;35921;-85
2023/07/27 03:44:37;;;;;;;;;;;;;;;16.05;58.32;100169.00;5383168;32;34629;-85
2023/07/27 03:47:39;;;;;;;;;;;;;;;15.97;58.38;100165.97;5374521;32;34816;-84
2023/07/27 03:50:43;;;;;;;;;;;;;;;15.88;58.48;100172.72;5379189;32;34201;-84
2023/07/27 03:53:46;;;;;;;;;;;;;;;15.37;60.05;100177.69;5387254;32;34561;-84
2023/07/27 03:56:48;;;;;;;;;;;;;;;15.61;59.71;100191.22;5377930;32;35681;-84
2023/07/27 03:59:54;;;;;;;;;;;;;;;15.36;59.97;100191.03;5384648;32;34756;-84
2023/07/27 04:02:55;;;;;;;;;;;;;;;15.46;59.56;100197.47;5380340;32;35357;-85
2023/07/27 04:05:58;;;;;;;;;;;;;;;15.17;60.50;100208.03;5381800;32;35757;-85
2023/07/27 04:09:00;;;;;;;;;;;;;;;15.70;59.26;100198.59;5390230;32;35471;-84
2023/07/27 04:12:02;;;;;;;;;;;;;;;15.89;59.08;100202.72;5382926;32;34304;-84
2023/07/27 04:15:05;;;;;;;;;;;;;;;16.14;58.10;100213.44;5393184;32;35367;-83
2023/07/27 04:18:07;;;;;;;;;;;;;;;15.88;58.54;100208.97;5385405;32;35043;-84
2023/07/27 04:21:10;;;;;;;;;;;;;;;14.94;62.06;100218.31;5388188;32;34843;-84
2023/07/27 04:24:12;;;;;;;;;;;;;;;15.70;59.76;100217.13;5394514;32;35946;-84
2023/07/27 04:27:14;;;;;;;;;;;;;;;15.53;59.66;100214.69;5386251;32;34471;-86
2023/07/27 04:30:16;;;;;;;;;;;;;;;15.78;60.11;100213.16;5388486;32;34974;-85
2023/07/27 04:33:18;;;;;;;;;;;;;;;15.78;59.42;100223.75;5383896;32;35291;-85
2023/07/27 04:36:20;;;;;;;;;;;;;;;16.10;59.29;100227.00;5384415;32;34921;-85
2023/07/27 04:39:22;;;;;;;;;;;;;;;16.72;56.31;100230.87;5385801;32;34440;-84
2023/07/27 04:42:24;;;;;;;;;;;;;;;16.43;57.32;100232.78;5384700;32;35429;-84
2023/07/27 04:45:26;;;;;;;;;;;;;;;15.79;59.14;100236.06;5393340;32;35089;-84
2023/07/27 04:48:28;;;;;;;;;;;;;;;16.19;58.01;100234.38;5386103;32;36442;-85
2023/07/27 04:51:30;;;;;;;;;;;;;;;16.13;58.34;100235.62;5388812;32;34292;-84
2023/07/27 04:54:32;;;;;;;;;;;;;;;15.59;59.85;100234.66;5385452;32;35037;-85
2023/07/27 04:57:34;;;;;;;;;;;;;;;16.35;57.26;100236.87;5389650;32;34896;-85
2023/07/27 05:00:36;;;;;;;;;;;;;;;16.58;56.85;100235.38;5382540;32;35080;-84
2023/07/27 05:03:38;;;;;;;;;;;;;;;16.59;56.35;100240.56;5383375;32;37001;-86
2023/07/27 05:06:41;;;;;;;;;;;;;;;16.83;55.98;100242.56;5389195;32;35999;-85
2023/07/27 05:09:43;;;;;;;;;;;;;;;16.43;56.66;100243.38;5388746;32;33769;-87
2023/07/27 05:12:45;;;;;;;;;;;;;;;17.57;54.36;100248.00;5387404;32;35205;-85
2023/07/27 05:15:47;;;;;;;;;;;;;;;17.92;52.94;100244.72;5385701;32;35027;-85
2023/07/27 05:18:49;;;;;;;;;;;;;;;18.14;52.23;100244.00;5385558;32;34882;-86
2023/07/27 05:21:51;;;;;;;;;;;;;;;18.85;49.95;100256.47;5382279;32;34514;-86
2023/07/27 05:24:53;;;;;;;;;;;;;;;18.98;49.32;100267.03;5385687;32;34283;-86
2023/07/27 05:27:55;;;;;;;;;;;;;;;18.57;50.77;100276.28;5389112;32;35083;-85
2023/07/27 05:30:57;;;;;;;;;;;;;;;18.35;51.10;100281.47;5392648;32;35437;-85
2023/07/27 05:33:59;;;;;;;;;;;;;;;19.85;47.82;100270.09;5385037;32;35500;-85
2023/07/27 05:37:01;;;;;;;;;;;;;;;20.04;46.67;100278.34;5385774;32;35423;-85
2023/07/27 05:40:04;;;;;;;;;;;;;;;19.61;47.45;100287.06;5400279;32;35524;-85
2023/07/27 05:43:07;;;;;;;;;;;;;;;20.70;45.22;100278.31;5388782;32;34235;-88
2023/07/27 05:46:09;;;;;;;;;;;;;;;20.08;46.26;100281.59;5400256;32;35703;-92
2023/07/27 05:49:11;;;;;;;;;;;;;;;19.99;46.85;100277.84;5408093;32;35359;-92
2023/07/27 05:52:13;;;;;;;;;;;;;;;20.19;46.26;100278.91;5391870;32;33667;-87
2023/07/27 05:55:15;;;;;;;;;;;;;;;20.74;45.15;100285.09;5388959;32;35804;-88
2023/07/27 05:58:17;;;;;;;;;;;;;;;20.23;46.52;100291.87;5385618;32;35661;-86
2023/07/27 06:01:26;;;;;;;;;;;;;;;21.49;44.30;100286.78;5389214;32;33290;-87
2023/07/27 06:04:32;;;;;;;;;;;;;;;21.30;43.52;100287.50;5384024;32;35168;-85
2023/07/27 06:07:34;;;;;;;;;;;;;;;20.87;44.48;100291.13;5384110;32;34233;-86
2023/07/27 06:10:36;;;;;;;;;;;;;;;21.47;43.12;100292.25;5393545;32;34454;-87
2023/07/27 06:13:38;;;;;;;;;;;;;;;22.30;41.50;100282.34;5384031;32;35022;-87
2023/07/27 06:16:41;;;;;;;;;;;;;;;22.33;41.39;100282.06;5392309;32;34582;-88
2023/07/27 06:19:43;;;;;;;;;;;;;;;21.99;41.44;100284.19;5397639;32;36437;-90
2023/07/27 06:22:45;;;;;;;;;;;;;;;22.98;39.33;100288.63;5416144;32;35790;-91
2023/07/27 06:25:48;;;;;;;;;;;;;;;23.15;39.28;100285.22;5410847;32;34766;-90
2023/07/27 06:28:50;;;;;;;;;;;;;;;23.04;39.52;100288.06;5418263;32;33616;-90
2023/07/27 06:31:52;;;;;;;;;;;;;;;24.72;36.46;100281.72;5413709;32;34780;-87
2023/07/27 06:34:54;;;;;;;;;;;;;;;24.38;36.69;100273.50;5401092;32;34511;-89
2023/07/27 06:37:57;;;;;;;;;;;;;;;23.39;38.63;100279.41;5376849;32;35591;-90
2023/07/27 06:40:59;;;;;;;;;;;;;;;24.28;36.83;100266.34;5414648;32;35027;-91
2023/07/27 06:44:01;;;;;;;;;;;;;;;23.54;37.92;100278.94;5417767;32;34299;-89
2023/07/27 06:47:04;;;;;;;;;;;;;;;22.93;39.28;100289.06;5416194;32;33439;-90
2023/07/27 06:50:08;;;;;;;;;;;;;;;23.63;38.26;100284.28;5407618;32;34666;-87
2023/07/27 06:53:14;;;;;;;;;;;;;;;24.95;35.85;100285.66;5407394;32;34232;-92
2023/07/27 06:56:17;;;;;;;;;;;;;;;25.58;35.04;100284.63;5403653;32;36117;-89
2023/07/27 06:59:19;;;;;;;;;;;;;;;25.20;34.76;100286.72;5418381;32;34353;-88
2023/07/27 07:02:21;;;;;;;;;;;;;;;24.53;35.78;100282.72;5413335;32;35538;-89
2023/07/27 07:05:24;;;;;;;;;;;;;;;24.81;35.18;100281.69;5416202;32;34319;-91
2023/07/27 07:08:26;;;;;;;;;;;;;;;25.74;33.77;100289.28;5410837;32;34619;-88
2023/07/27 07:11:28;;;;;;;;;;;;;;;24.46;35.50;100287.84;5400471;32;35240;-88
2023/07/27 07:14:31;;;;;;;;;;;;;;;25.58;33.86;100292.72;5400435;32;34409;-87
2023/07/27 07:17:33;;;;;;;;;;;;;;;25.44;34.29;100285.19;5396966;32;36038;-89
2023/07/27 07:20:35;;;;;;;;;;;;;;;26.39;32.58;100279.59;5399390;32;34278;-87
2023/07/27 07:23:37;;;;;;;;;;;;;;;26.55;32.47;100273.47;5412187;32;35392;-88
2023/07/27 07:26:40;;;;;;;;;;;;;;;25.71;33.75;100281.50;5407066;32;34597;-89
2023/07/27 07:29:43;;;;;;;;;;;;;;;26.08;33.17;100273.09;5400511;32;34458;-88
2023/07/27 07:32:45;;;;;;;;;;;;;;;27.14;31.71;100279.59;5394655;32;34098;-90
2023/07/27 07:35:49;;;;;;;;;;;;;;;27.48;30.50;100270.41;5390172;32;34746;-88
2023/07/27 07:38:51;;;;;;;;;;;;;;;26.41;31.88;100271.41;5392879;32;35085;-88
2023/07/27 07:41:54;;;;;;;;;;;;;;;25.78;32.79;100285.28;5391066;32;35091;-88
2023/07/27 07:44:58;;;;;;;;;;;;;;;26.62;31.79;100279.03;5404140;32;35407;-92
2023/07/27 07:48:00;;;;;;;;;;;;;;;26.97;30.83;100273.31;5416139;32;35734;-91
2023/07/27 07:51:08;;;;;;;;;;;;;;;27.26;29.81;100277.37;5422695;32;35223;-92
2023/07/27 07:54:10;;;;;;;;;;;;;;;27.21;29.65;100285.16;5409378;32;34765;-92
2023/07/27 07:57:13;;;;;;;;;;;;;;;26.08;30.99;100282.06;5417339;32;36608;-89
2023/07/27 08:00:15;;;;;;;;;;;;;;;26.18;31.61;100281.91;5398090;32;35720;-89
2023/07/27 08:03:18;;;;;;;;;;;;;;;27.71;28.90;100284.06;5405479;32;35461;-90
2023/07/27 08:06:20;;;;;;;;;;;;;;;26.21;31.72;100286.97;5409902;32;34559;-91
2023/07/27 08:09:25;;;;;;;;;;;;;;;26.49;30.32;100274.13;5394723;32;34240;-88
2023/07/27 08:12:29;;;;;;;;;;;;;;;27.29;29.65;100277.03;5399021;32;35339;-88
2023/07/27 08:15:32;;;;;;;;;;;;;;;28.53;27.75;100265.62;5395645;32;34204;-90
2023/07/27 08:18:34;;;;;;;;;;;;;;;27.50;29.51;100277.34;5406753;32;33975;-87
2023/07/27 08:21:36;;;;;;;;;;;;;;;28.96;26.70;100272.28;5401226;32;35635;-88
2023/07/27 08:24:38;;;;;;;;;;;;;;;27.33;28.67;100280.25;5400248;32;36405;-87
2023/07/27 08:27:40;;;;;;;;;;;;;;;28.16;27.73;100279.84;5416477;32;36035;-88
2023/07/27 08:30:43;;;;;;;;;;;;;;;27.42;28.95;100279.19;5400460;32;34054;-88
2023/07/27 08:33:47;;;;;;;;;;;;;;;29.10;26.29;100267.91;5391468;32;33894;-87
2023/07/27 08:36:51;;;;;;;;;;;;;;;27.78;27.82;100274.25;5403864;32;35505;-87
2023/07/27 08:39:54;;;;;;;;;;;;;;;27.87;28.18;100267.81;5413215;32;33813;-86
2023/07/27 08:42:56;;;;;;;;;;;;;;;26.53;29.20;100271.91;5418146;32;35735;-87
2023/07/27 08:45:58;;;;;;;;;;;;;;;29.28;25.84;100264.88;5410818;32;35836;-87
2023/07/27 08:49:01;;;;;;;;;;;;;;;27.50;27.61;100271.09;5396218;32;33142;-88
2023/07/27 08:52:03;;;;;;;;;;;;;;;28.43;27.15;100260.47;5397297;32;34481;-87
2023/07/27 08:55:09;;;;;;;;;;;;;;;29.63;24.86;100266.94;5406831;32;34209;-88
2023/07/27 08:58:11;;;;;;;;;;;;;;;28.44;26.89;100259.44;5403356;32;35500;-90
2023/07/27 09:01:15;;;;;;;;;;;;;;;28.17;27.24;100257.22;5405528;32;34173;-86
2023/07/27 09:04:18;;;;;;;;;;;;;;;28.37;26.92;100261.19;5399444;32;35017;-87
2023/07/27 09:07:20;;;;;;;;;;;;;;;27.73;28.44;100257.72;5396818;32;34582;-86
2023/07/27 09:10:22;;;;;;;;;;;;;;;28.22;27.50;100252.97;5401535;32;33730;-88
2023/07/27 09:13:29;;;;;;;;;;;;;;;29.34;25.45;100254.16;5395854;32;36339;-88
2023/07/27 09:16:36;;;;;;;;;;;;;;;29.47;25.32;100253.53;5401725;32;35029;-89
2023/07/27 09:19:40;;;;;;;;;;;;;;;27.82;27.49;100256.69;5396183;32;34367;-88
2023/07/27 09:22:42;;;;;;;;;;;;;;;28.80;26.07;100250.75;5398097;32;34672;-88
2023/07/27 09:25:52;;;;;;;;;;;;;;;28.87;26.09;100255.25;5391104;32;34874;-89
2023/07/27 09:28:54;;;;;;;;;;;;;;;29.86;25.08;100247.00;5398301;32;35605;-89
2023/07/27 09:32:00;;;;;;;;;;;;;;;30.96;23.93;100250.34;5406003;32;35094;-88
2023/07/27 09:35:03;;;;;;;;;;;;;;;28.04;27.54;100242.41;5399161;32;34520;-88
2023/07/27 09:38:05;;;;;;;;;;;;;;;29.81;24.97;100252.12;5397281;32;34869;-86
2023/07/27 09:41:07;;;;;;;;;;;;;;;28.40;26.48;100252.69;5403005;32;35080;-87
2023/07/27 09:44:16;;;;;;;;;;;;;;;29.40;25.32;100255.28;5401224;32;35287;-87
2023/07/27 09:47:20;;;;;;;;;;;;;;;30.72;24.49;100243.47;5402767;32;34333;-85
2023/07/27 09:50:22;;;;;;;;;;;;;;;30.15;24.21;100241.59;5409064;32;35950;-87
2023/07/27 09:53:24;;;;;;;;;;;;;;;28.31;26.07;100254.63;5401784;32;34854;-88
2023/07/27 09:56:26;;;;;;;;;;;;;;;28.98;25.26;100245.91;5400160;32;35928;-86
2023/07/27 09:59:29;;;;;;;;;;;;;;;30.20;24.02;100235.56;5398669;32;35040;-88
2023/07/27 10:02:31;;;;;;;;;;;;;;;28.05;26.73;100229.75;5404974;32;35699;-88
2023/07/27 10:05:36;;;;;;;;;;;;;;;27.65;26.88;100236.97;5401058;32;34838;-90
2023/07/27 10:08:40;;;;;;;;;;;;;;;28.35;25.26;100225.38;5406339;32;36357;-89
2023/07/27 10:11:55;;;;;;;;;;;;;;;28.39;25.56;100228.56;5400885;32;34862;-87
2023/07/27 10:15:17;;;;;;;;;;;;;;;31.88;21.86;100202.28;5410943;32;34281;-87
2023/07/27 10:18:26;;;;;;;;;;;;;;;29.84;23.81;100216.56;5398269;32;35410;-89
2023/07/27 10:21:29;;;;;;;;;;;;;;;30.04;23.98;100209.50;5384502;32;35400;-90
2023/07/27 10:24:45;;;;;;;;;;;;;;;30.03;23.91;100207.84;5396063;32;34892;-88
2023/07/27 10:27:53;;;;;;;;;;;;;;;29.24;23.44;100214.84;5395364;32;35056;-88
2023/07/27 10:31:16;;;;;;;;;;;;;;;31.82;21.34;100212.12;5398341;32;34462;-87
2023/07/27 10:34:18;;;;;;;;;;;;;;;28.10;26.14;100219.25;5390503;32;36588;-86
2023/07/27 10:37:27;;;;;;;;;;;;;;;29.84;23.68;100203.03;5392973;32;35066;-88
2023/07/27 10:40:32;;;;;;;;;;;;;;;30.04;23.01;100195.12;5393621;32;34352;-87
2023/07/27 10:43:36;;;;;;;;;;;;;;;30.41;22.57;100194.09;5392631;32;34987;-87
2023/07/27 10:46:38;;;;;;;;;;;;;;;29.56;24.18;100187.47;5400247;32;34021;-89
2023/07/27 10:49:45;;;;;;;;;;;;;;;29.07;24.15;100195.25;5399903;32;35426;-87
2023/07/27 10:52:47;;;;;;;;;;;;;;;26.87;27.40;100197.16;5395827;32;34567;-88
2023/07/27 10:55:50;;;;;;;;;;;;;;;29.82;23.73;100186.97;5367690;32;856124;-89
2023/07/27 10:58:53;;;;;;;;;;;;;;;29.88;23.10;100180.78;5403951;32;35438;-88
2023/07/27 11:01:55;;;;;;;;;;;;;;;31.26;21.94;100171.47;5396301;32;34917;-88
2023/07/27 11:04:58;;;;;;;;;;;;;;;31.66;21.65;100158.91;5401594;32;34879;-87
2023/07/27 11:08:01;;;;;;;;;;;;;;;32.36;20.90;100169.66;5405643;32;34163;-87
2023/07/27 11:11:32;;;;;;;;;;;;;;;30.82;22.39;100171.75;5388611;32;34432;-88
2023/07/27 11:14:35;;;;;;;;;;;;;;;31.91;21.30;100169.28;5383213;32;34783;-88
2023/07/27 11:17:42;;;;;;;;;;;;;;;31.88;20.93;100167.84;5397254;32;34890;-86
2023/07/27 11:20:44;;;;;;;;;;;;;;;32.22;20.96;100166.88;5401723;32;34331;-88
2023/07/27 11:23:47;;;;;;;;;;;;;;;32.83;19.63;100165.87;5396390;32;34404;-86
2023/07/27 11:26:49;;;;;;;;;;;;;;;31.15;22.42;100167.41;5392019;32;35589;-86
2023/07/27 11:29:51;;;;;;;;;;;;;;;31.26;20.83;100164.16;5391590;32;34787;-86
2023/07/27 11:33:17;;;;;;;;;;;;;;;31.96;20.93;100166.81;5387644;32;34474;-88
2023/07/27 11:36:19;;;;;;;;;;;;;;;31.83;20.80;100159.44;5399245;32;35955;-88
2023/07/27 11:39:22;;;;;;;;;;;;;;;30.76;21.98;100154.38;5396574;32;35331;-87
2023/07/27 11:42:28;;;;;;;;;;;;;;;31.80;20.60;100148.97;5393907;32;34456;-87
2023/07/27 11:45:30;;;;;;;;;;;;;;;31.05;21.54;100150.62;5396960;32;34193;-87
2023/07/27 11:48:34;;;;;;;;;;;;;;;31.98;20.26;100146.53;5390997;32;34940;-88
2023/07/27 11:51:38;;;;;;;;;;;;;;;30.00;22.20;100150.47;5392101;32;34182;-86
2023/07/27 11:54:40;;;;;;;;;;;;;;;30.07;22.91;100135.94;5395242;32;35615;-86
2023/07/27 11:57:49;;;;;;;;;;;;;;;33.12;19.01;100135.53;5389878;32;36766;-88
2023/07/27 12:00:51;;;;;;;;;;;;;;;31.33;20.85;100138.94;5392525;32;34441;-89
2023/07/27 12:03:54;;;;;;;;;;;;;;;30.72;21.71;100129.53;5390893;32;35602;-85
2023/07/27 12:06:57;;;;;;;;;;;;;;;31.65;20.55;100124.66;5393102;32;33620;-85
2023/07/27 12:10:00;;;;;;;;;;;;;;;31.40;20.39;100115.34;5393014;32;35378;-87
2023/07/27 12:13:07;;;;;;;;;;;;;;;32.00;20.07;100124.56;5391425;32;33340;-87
2023/07/27 12:16:12;;;;;;;;;;;;;;;33.53;18.19;100117.19;5388780;32;34733;-88
2023/07/27 12:19:17;;;;;;;;;;;;;;;32.90;19.42;100117.75;5398534;32;33704;-86
2023/07/27 12:22:22;;;;;;;;;;;;;;;33.51;18.61;100114.69;5390437;32;35549;-87
2023/07/27 12:25:27;;;;;;;;;;;;;;;34.47;16.75;100124.66;5388808;32;35284;-87
2023/07/27 12:28:32;;;;;;;;;;;;;;;30.66;20.46;100124.87;5387704;32;35212;-86
2023/07/27 12:31:37;;;;;;;;;;;;;;;28.92;22.48;100129.44;5388089;32;36329;-86
2023/07/27 12:34:42;;;;;;;;;;;;;;;28.05;23.12;100127.94;5388503;32;35516;-85
2023/07/27 12:37:47;;;;;;;;;;;;;;;27.26;24.08;100129.00;5401307;32;33443;-85
2023/07/27 12:40:50;;;;;;;;;;;;;;;27.53;23.76;100119.59;5393965;32;35058;-86
2023/07/27 12:43:56;;;;;;;;;;;;;;;26.84;25.63;100121.97;5393894;32;33886;-85
2023/07/27 12:46:59;;;;;;;;;;;;;;;25.82;27.83;100123.25;5394256;32;35881;-86
2023/07/27 12:50:01;;;;;;;;;;;;;;;26.45;27.32;100117.31;5390041;32;34113;-85
2023/07/27 12:53:03;;;;;;;;;;;;;;;25.50;27.84;100113.22;5397067;32;36554;-85
2023/07/27 12:56:06;;;;;;;;;;;;;;;26.12;27.47;100110.19;5391491;32;34567;-87
2023/07/27 12:59:08;;;;;;;;;;;;;;;25.82;28.04;100120.56;5404172;32;34594;-86
2023/07/27 13:02:10;;;;;;;;;;;;;;;25.95;27.65;100108.47;5390048;32;36479;-87
2023/07/27 13:05:12;;;;;;;;;;;;;;;27.12;26.00;100110.84;5397767;32;33197;-88
2023/07/27 13:08:14;;;;;;;;;;;;;;;26.11;27.45;100108.50;5401602;32;34446;-86
2023/07/27 13:11:19;;;;;;;;;;;;;;;26.97;26.18;100099.88;5399156;32;35073;-87
2023/07/27 13:14:21;;;;;;;;;;;;;;;26.21;26.93;100093.03;5399831;32;34445;-85
2023/07/27 13:17:23;;;;;;;;;;;;;;;26.56;26.97;100096.44;5394326;32;38541;-85
2023/07/27 13:20:26;;;;;;;;;;;;;;;26.80;26.51;100099.09;5413845;32;36013;-85
2023/07/27 13:23:28;;;;;;;;;;;;;;;26.55;26.83;100086.66;5397829;32;35072;-86
2023/07/27 13:26:31;;;;;;;;;;;;;;;26.61;26.87;100094.06;5396458;32;35349;-86
2023/07/27 13:29:34;;;;;;;;;;;;;;;26.45;26.87;100101.13;5389382;32;34380;-87
2023/07/27 13:32:37;;;;;;;;;;;;;;;26.46;26.15;100089.34;5386148;32;34011;-83
2023/07/27 13:35:39;;;;;;;;;;;;;;;26.73;25.77;100081.91;5393790;32;34762;-87
2023/07/27 13:38:41;;;;;;;;;;;;;;;27.33;25.13;100083.28;5387992;32;34839;-83
2023/07/27 13:41:44;;;;;;;;;;;;;;;27.60;24.89;100084.66;5387536;32;34762;-84
2023/07/27 13:44:47;;;;;;;;;;;;;;;27.69;24.82;100083.59;5399917;32;34320;-85
2023/07/27 13:47:49;;;;;;;;;;;;;;;25.81;26.56;100086.59;5392447;32;34027;-83
2023/07/27 13:51:09;;;;;;;;;;;;;;;26.31;26.42;100090.16;5388589;32;36812;-84
2023/07/27 13:54:11;;;;;;;;;;;;;;;26.82;25.38;100080.87;5390267;32;35449;-84
2023/07/27 13:57:15;;;;;;;;;;;;;;;26.31;25.59;100077.53;5399387;32;34689;-84
2023/07/27 14:00:17;;;;;;;;;;;;;;;27.14;25.33;100082.66;5385610;32;34504;-84
2023/07/27 14:03:19;;;;;;;;;;;;;;;27.02;25.27;100080.47;5393471;32;35265;-85
2023/07/27 14:06:22;;;;;;;;;;;;;;;25.92;27.17;100086.28;5402184;32;36225;-86
2023/07/27 14:09:26;;;;;;;;;;;;;;;26.51;26.47;100088.00;5392945;32;34983;-84
2023/07/27 14:12:28;;;;;;;;;;;;;;;25.97;27.10;100083.09;5389804;32;34762;-85
2023/07/27 14:15:31;;;;;;;;;;;;;;;25.65;28.06;100084.69;5397598;32;34146;-85
2023/07/27 14:18:35;;;;;;;;;;;;;;;25.86;28.00;100084.25;5402105;32;35590;-84
2023/07/27 14:21:37;;;;;;;;;;;;;;;25.45;28.68;100079.75;5405150;32;34754;-85
2023/07/27 14:24:39;;;;;;;;;;;;;;;25.64;28.87;100084.84;5409965;32;35050;-85
2023/07/27 14:27:41;;;;;;;;;;;;;;;25.88;28.70;100089.47;5405826;32;34472;-86
2023/07/27 14:30:43;;;;;;;;;;;;;;;25.72;28.82;100078.66;5408408;32;34140;-86
2023/07/27 14:33:57;;;;;;;;;;;;;;;25.87;28.44;100074.31;5407562;32;35293;-85
2023/07/27 14:36:59;;;;;;;;;;;;;;;25.73;28.46;100075.81;5404507;32;34763;-86
2023/07/27 14:40:03;;;;;;;;;;;;;;;26.62;27.17;100077.72;5404409;32;35323;-86
2023/07/27 14:43:05;;;;;;;;;;;;;;;26.63;26.89;100082.09;5394448;32;34125;-85
2023/07/27 14:46:07;;;;;;;;;;;;;;;26.29;27.17;100074.19;5392131;32;34765;-87
2023/07/27 14:49:09;;;;;;;;;;;;;;;25.16;28.50;100080.97;5399270;32;36530;-86
2023/07/27 14:52:11;;;;;;;;;;;;;;;25.32;28.42;100064.06;5403533;32;34131;-87
2023/07/27 14:55:13;;;;;;;;;;;;;;;25.94;27.23;100059.19;5402837;32;34758;-87
2023/07/27 14:58:15;;;;;;;;;;;;;;;26.02;27.33;100064.59;5406883;32;35046;-85
2023/07/27 15:01:18;;;;;;;;;;;;;;;25.60;28.01;100067.34;5402884;32;34169;-84
2023/07/27 15:04:30;;;;;;;;;;;;;;;26.80;26.42;100060.50;5399458;32;35501;-86
2023/07/27 15:07:35;;;;;;;;;;;;;;;26.30;26.63;100058.88;5399588;32;34669;-87
2023/07/27 15:10:38;;;;;;;;;;;;;;;26.45;26.75;100060.72;5416487;32;34944;-85
2023/07/27 15:13:43;;;;;;;;;;;;;;;26.77;26.20;100067.06;5400523;32;35962;-85
2023/07/27 15:16:45;;;;;;;;;;;;;;;26.66;26.56;100062.03;5408573;32;35436;-85
2023/07/27 15:19:48;;;;;;;;;;;;;;;26.21;27.26;100068.78;5399321;32;34822;-84
2023/07/27 15:22:50;;;;;;;;;;;;;;;25.69;28.29;100074.41;5424490;32;35697;-85
2023/07/27 15:25:58;;;;;;;;;;;;;;;25.63;28.19;100064.31;5429278;32;34967;-87
2023/07/27 15:29:01;;;;;;;;;;;;;;;25.98;27.76;100060.53;5405257;32;34837;-86
2023/07/27 15:32:04;;;;;;;;;;;;;;;25.45;27.76;100053.69;5402882;32;34557;-86
2023/07/27 15:35:06;;;;;;;;;;;;;;;26.26;26.94;100052.97;5391398;32;34816;-85
2023/07/27 15:38:08;;;;;;;;;;;;;;;26.09;27.20;100054.00;5399898;32;35517;-85
2023/07/27 15:41:10;;;;;;;;;;;;;;;26.33;27.13;100050.44;5404958;32;33911;-85